sensor_id;sensor_type;location;lat;lon;timestamp;P1;durP1;ratioP1;P2;durP2;ratioP2
12756;SDS011;31601;48.042;12.240;2023-04-24T00:01:44;2.70;;;1.80;;
12756;SDS011;31601;48.042;12.240;2023-04-24T00:04:10;1.70;;;1.50;;
12756;SDS011;31601;48.042;12.240;2023-04-24T00:06:39;1.87;;;1.50;;
12756;SDS011;31601;48.042;12.240;2023-04-24T00:09:07;1.77;;;1.60;;
12756;SDS011;31601;48.042;12.240;2023-04-24T00:11:36;3.83;;;1.63;;
12756;SDS011;31601;48.042;12.240;2023-04-24T00:14:03;1.53;;;1.30;;
12756;SDS011;31601;48.042;12.240;2023-04-24T00:16:29;2.57;;;1.27;;
12756;SDS011;31601;48.042;12.240;2023-04-24T00:18:56;1.33;;;1.10;;
12756;SDS011;31601;48.042;12.240;2023-04-24T00:21:22;3.27;;;1.20;;
12756;SDS011;31601;48.042;12.240;2023-04-24T00:23:50;1.67;;;1.07;;
12756;SDS011;31601;48.042;12.240;2023-04-24T00:26:17;2.43;;;1.07;;
12756;SDS011;31601;48.042;12.240;2023-04-24T00:28:44;1.90;;;0.90;;
12756;SDS011;31601;48.042;12.240;2023-04-24T00:31:11;1.77;;;1.03;;
12756;SDS011;31601;48.042;12.240;2023-04-24T00:33:38;1.73;;;1.00;;
12756;SDS011;31601;48.042;12.240;2023-04-24T00:36:05;1.70;;;1.33;;
12756;SDS011;31601;48.042;12.240;2023-04-24T00:38:32;3.00;;;1.10;;
12756;SDS011;31601;48.042;12.240;2023-04-24T00:40:58;4.43;;;1.50;;
12756;SDS011;31601;48.042;12.240;2023-04-24T00:43:25;1.67;;;0.90;;
12756;SDS011;31601;48.042;12.240;2023-04-24T00:45:53;2.73;;;1.20;;
12756;SDS011;31601;48.042;12.240;2023-04-24T00:48:20;2.47;;;1.10;;
12756;SDS011;31601;48.042;12.240;2023-04-24T00:50:47;2.27;;;0.80;;
12756;SDS011;31601;48.042;12.240;2023-04-24T00:53:13;2.83;;;1.10;;
12756;SDS011;31601;48.042;12.240;2023-04-24T00:55:40;1.57;;;1.10;;
12756;SDS011;31601;48.042;12.240;2023-04-24T00:58:06;2.30;;;1.30;;
12756;SDS011;31601;48.042;12.240;2023-04-24T01:00:33;1.33;;;1.00;;
12756;SDS011;31601;48.042;12.240;2023-04-24T01:03:01;1.83;;;1.37;;
12756;SDS011;31601;48.042;12.240;2023-04-24T01:05:32;2.03;;;1.00;;
12756;SDS011;31601;48.042;12.240;2023-04-24T01:07:59;0.73;;;0.73;;
12756;SDS011;31601;48.042;12.240;2023-04-24T01:10:25;2.20;;;1.10;;
12756;SDS011;31601;48.042;12.240;2023-04-24T01:12:55;1.10;;;1.00;;
12756;SDS011;31601;48.042;12.240;2023-04-24T01:15:21;2.40;;;1.23;;
12756;SDS011;31601;48.042;12.240;2023-04-24T01:17:48;1.60;;;0.90;;
12756;SDS011;31601;48.042;12.240;2023-04-24T01:20:16;1.77;;;1.00;;
12756;SDS011;31601;48.042;12.240;2023-04-24T01:22:45;2.43;;;1.10;;
12756;SDS011;31601;48.042;12.240;2023-04-24T01:25:11;1.70;;;1.00;;
12756;SDS011;31601;48.042;12.240;2023-04-24T01:27:38;2.50;;;1.20;;
12756;SDS011;31601;48.042;12.240;2023-04-24T01:30:05;1.27;;;1.07;;
12756;SDS011;31601;48.042;12.240;2023-04-24T01:32:32;1.47;;;1.30;;
12756;SDS011;31601;48.042;12.240;2023-04-24T01:34:59;3.13;;;1.17;;
12756;SDS011;31601;48.042;12.240;2023-04-24T01:37:26;3.70;;;1.30;;
12756;SDS011;31601;48.042;12.240;2023-04-24T01:39:54;1.10;;;0.73;;
12756;SDS011;31601;48.042;12.240;2023-04-24T01:42:21;2.70;;;1.20;;
12756;SDS011;31601;48.042;12.240;2023-04-24T01:44:47;1.20;;;0.97;;
12756;SDS011;31601;48.042;12.240;2023-04-24T01:47:14;3.33;;;1.20;;
12756;SDS011;31601;48.042;12.240;2023-04-24T01:49:41;1.77;;;1.10;;
12756;SDS011;31601;48.042;12.240;2023-04-24T01:52:07;1.50;;;1.03;;
12756;SDS011;31601;48.042;12.240;2023-04-24T01:54:34;1.70;;;1.10;;
12756;SDS011;31601;48.042;12.240;2023-04-24T01:57:01;1.17;;;0.93;;
12756;SDS011;31601;48.042;12.240;2023-04-24T01:59:28;0.77;;;0.70;;
12756;SDS011;31601;48.042;12.240;2023-04-24T02:01:56;1.03;;;0.90;;
12756;SDS011;31601;48.042;12.240;2023-04-24T02:04:22;2.27;;;0.90;;
12756;SDS011;31601;48.042;12.240;2023-04-24T02:06:48;1.43;;;1.03;;
12756;SDS011;31601;48.042;12.240;2023-04-24T02:09:15;1.87;;;1.07;;
12756;SDS011;31601;48.042;12.240;2023-04-24T02:11:42;1.10;;;1.00;;
12756;SDS011;31601;48.042;12.240;2023-04-24T02:14:09;2.23;;;1.07;;
12756;SDS011;31601;48.042;12.240;2023-04-24T02:16:36;2.27;;;0.73;;
12756;SDS011;31601;48.042;12.240;2023-04-24T02:19:03;0.90;;;0.70;;
12756;SDS011;31601;48.042;12.240;2023-04-24T02:21:29;1.33;;;0.90;;
12756;SDS011;31601;48.042;12.240;2023-04-24T02:23:56;0.67;;;0.67;;
12756;SDS011;31601;48.042;12.240;2023-04-24T02:26:23;1.40;;;0.70;;
12756;SDS011;31601;48.042;12.240;2023-04-24T02:28:50;2.73;;;1.00;;
12756;SDS011;31601;48.042;12.240;2023-04-24T02:31:17;2.07;;;0.80;;
12756;SDS011;31601;48.042;12.240;2023-04-24T02:33:44;0.73;;;0.70;;
12756;SDS011;31601;48.042;12.240;2023-04-24T02:36:10;1.67;;;1.00;;
12756;SDS011;31601;48.042;12.240;2023-04-24T02:38:38;1.43;;;1.27;;
12756;SDS011;31601;48.042;12.240;2023-04-24T02:41:04;2.97;;;1.60;;
12756;SDS011;31601;48.042;12.240;2023-04-24T02:43:31;1.50;;;1.40;;
12756;SDS011;31601;48.042;12.240;2023-04-24T02:45:57;2.40;;;1.33;;
12756;SDS011;31601;48.042;12.240;2023-04-24T02:48:25;1.77;;;1.50;;
12756;SDS011;31601;48.042;12.240;2023-04-24T02:50:52;2.87;;;1.40;;
12756;SDS011;31601;48.042;12.240;2023-04-24T02:53:18;2.07;;;1.57;;
12756;SDS011;31601;48.042;12.240;2023-04-24T02:55:45;3.40;;;1.50;;
12756;SDS011;31601;48.042;12.240;2023-04-24T02:58:11;3.40;;;1.17;;
12756;SDS011;31601;48.042;12.240;2023-04-24T03:00:38;1.77;;;1.40;;
12756;SDS011;31601;48.042;12.240;2023-04-24T03:03:05;1.83;;;1.47;;
12756;SDS011;31601;48.042;12.240;2023-04-24T03:05:33;3.10;;;1.23;;
12756;SDS011;31601;48.042;12.240;2023-04-24T03:08:00;3.53;;;1.40;;
12756;SDS011;31601;48.042;12.240;2023-04-24T03:10:26;1.70;;;1.40;;
12756;SDS011;31601;48.042;12.240;2023-04-24T03:12:52;1.47;;;1.33;;
12756;SDS011;31601;48.042;12.240;2023-04-24T03:15:20;2.60;;;1.40;;
12756;SDS011;31601;48.042;12.240;2023-04-24T03:17:46;1.83;;;1.40;;
12756;SDS011;31601;48.042;12.240;2023-04-24T03:20:13;1.67;;;1.30;;
12756;SDS011;31601;48.042;12.240;2023-04-24T03:22:40;1.33;;;1.20;;
12756;SDS011;31601;48.042;12.240;2023-04-24T03:25:07;2.17;;;1.20;;
12756;SDS011;31601;48.042;12.240;2023-04-24T03:27:34;1.80;;;1.30;;
12756;SDS011;31601;48.042;12.240;2023-04-24T03:30:01;1.90;;;1.30;;
12756;SDS011;31601;48.042;12.240;2023-04-24T03:32:28;2.60;;;1.20;;
12756;SDS011;31601;48.042;12.240;2023-04-24T03:34:54;1.50;;;1.40;;
12756;SDS011;31601;48.042;12.240;2023-04-24T03:37:21;1.97;;;1.10;;
12756;SDS011;31601;48.042;12.240;2023-04-24T03:39:48;1.70;;;1.20;;
12756;SDS011;31601;48.042;12.240;2023-04-24T03:42:15;1.73;;;1.40;;
12756;SDS011;31601;48.042;12.240;2023-04-24T03:44:41;1.77;;;1.10;;
12756;SDS011;31601;48.042;12.240;2023-04-24T03:47:08;1.13;;;0.93;;
12756;SDS011;31601;48.042;12.240;2023-04-24T03:49:34;1.43;;;1.03;;
12756;SDS011;31601;48.042;12.240;2023-04-24T03:52:01;2.07;;;1.20;;
12756;SDS011;31601;48.042;12.240;2023-04-24T03:54:28;1.07;;;0.90;;
12756;SDS011;31601;48.042;12.240;2023-04-24T03:56:55;1.53;;;1.27;;
12756;SDS011;31601;48.042;12.240;2023-04-24T03:59:22;2.20;;;1.43;;
12756;SDS011;31601;48.042;12.240;2023-04-24T04:01:48;1.97;;;1.23;;
12756;SDS011;31601;48.042;12.240;2023-04-24T04:04:15;1.30;;;1.07;;
12756;SDS011;31601;48.042;12.240;2023-04-24T04:06:41;1.50;;;1.00;;
12756;SDS011;31601;48.042;12.240;2023-04-24T04:09:09;1.83;;;0.93;;
12756;SDS011;31601;48.042;12.240;2023-04-24T04:11:35;2.00;;;0.87;;
12756;SDS011;31601;48.042;12.240;2023-04-24T04:14:03;2.60;;;1.10;;
12756;SDS011;31601;48.042;12.240;2023-04-24T04:16:30;1.77;;;1.07;;
12756;SDS011;31601;48.042;12.240;2023-04-24T04:18:56;1.20;;;0.77;;
12756;SDS011;31601;48.042;12.240;2023-04-24T04:21:23;2.70;;;1.20;;
12756;SDS011;31601;48.042;12.240;2023-04-24T04:23:51;1.93;;;0.77;;
12756;SDS011;31601;48.042;12.240;2023-04-24T04:26:17;2.33;;;1.20;;
12756;SDS011;31601;48.042;12.240;2023-04-24T04:28:44;1.50;;;1.10;;
12756;SDS011;31601;48.042;12.240;2023-04-24T04:31:11;1.67;;;0.80;;
12756;SDS011;31601;48.042;12.240;2023-04-24T04:33:38;1.23;;;0.80;;
12756;SDS011;31601;48.042;12.240;2023-04-24T04:36:05;1.70;;;0.50;;
12756;SDS011;31601;48.042;12.240;2023-04-24T04:38:31;3.70;;;1.13;;
12756;SDS011;31601;48.042;12.240;2023-04-24T04:40:58;1.47;;;1.07;;
12756;SDS011;31601;48.042;12.240;2023-04-24T04:43:25;3.33;;;1.03;;
12756;SDS011;31601;48.042;12.240;2023-04-24T04:45:51;2.30;;;0.90;;
12756;SDS011;31601;48.042;12.240;2023-04-24T04:48:20;2.27;;;1.07;;
12756;SDS011;31601;48.042;12.240;2023-04-24T04:50:47;3.67;;;1.80;;
12756;SDS011;31601;48.042;12.240;2023-04-24T04:53:13;2.00;;;1.50;;
12756;SDS011;31601;48.042;12.240;2023-04-24T04:55:40;1.43;;;1.10;;
12756;SDS011;31601;48.042;12.240;2023-04-24T04:58:06;5.57;;;1.40;;
12756;SDS011;31601;48.042;12.240;2023-04-24T05:00:33;1.83;;;1.03;;
12756;SDS011;31601;48.042;12.240;2023-04-24T05:03:00;3.07;;;1.27;;
12756;SDS011;31601;48.042;12.240;2023-04-24T05:05:28;2.13;;;1.10;;
12756;SDS011;31601;48.042;12.240;2023-04-24T05:07:55;2.23;;;1.00;;
12756;SDS011;31601;48.042;12.240;2023-04-24T05:10:21;2.43;;;1.40;;
12756;SDS011;31601;48.042;12.240;2023-04-24T05:12:48;2.73;;;1.00;;
12756;SDS011;31601;48.042;12.240;2023-04-24T05:15:14;1.73;;;1.40;;
12756;SDS011;31601;48.042;12.240;2023-04-24T05:17:41;4.43;;;1.27;;
12756;SDS011;31601;48.042;12.240;2023-04-24T05:20:07;3.30;;;1.80;;
12756;SDS011;31601;48.042;12.240;2023-04-24T05:22:36;3.47;;;2.47;;
12756;SDS011;31601;48.042;12.240;2023-04-24T05:25:02;2.87;;;1.27;;
12756;SDS011;31601;48.042;12.240;2023-04-24T05:27:29;3.23;;;1.50;;
12756;SDS011;31601;48.042;12.240;2023-04-24T05:29:55;3.00;;;1.50;;
12756;SDS011;31601;48.042;12.240;2023-04-24T05:32:22;1.97;;;1.00;;
12756;SDS011;31601;48.042;12.240;2023-04-24T05:34:48;5.43;;;1.60;;
12756;SDS011;31601;48.042;12.240;2023-04-24T05:37:15;4.00;;;1.57;;
12756;SDS011;31601;48.042;12.240;2023-04-24T05:39:42;1.57;;;1.23;;
12756;SDS011;31601;48.042;12.240;2023-04-24T05:42:09;3.30;;;1.10;;
12756;SDS011;31601;48.042;12.240;2023-04-24T05:44:35;4.57;;;1.40;;
12756;SDS011;31601;48.042;12.240;2023-04-24T05:47:01;5.27;;;1.30;;
12756;SDS011;31601;48.042;12.240;2023-04-24T05:49:28;2.97;;;1.33;;
12756;SDS011;31601;48.042;12.240;2023-04-24T05:51:54;3.73;;;1.50;;
12756;SDS011;31601;48.042;12.240;2023-04-24T05:54:21;5.07;;;1.50;;
12756;SDS011;31601;48.042;12.240;2023-04-24T05:56:49;2.23;;;1.27;;
12756;SDS011;31601;48.042;12.240;2023-04-24T05:59:16;4.60;;;1.67;;
12756;SDS011;31601;48.042;12.240;2023-04-24T06:01:42;2.83;;;1.67;;
12756;SDS011;31601;48.042;12.240;2023-04-24T06:04:09;2.03;;;1.60;;
12756;SDS011;31601;48.042;12.240;2023-04-24T06:06:36;2.57;;;1.90;;
12756;SDS011;31601;48.042;12.240;2023-04-24T06:09:02;2.00;;;1.60;;
12756;SDS011;31601;48.042;12.240;2023-04-24T06:11:29;4.27;;;1.50;;
12756;SDS011;31601;48.042;12.240;2023-04-24T06:13:58;2.00;;;1.50;;
12756;SDS011;31601;48.042;12.240;2023-04-24T06:16:24;1.60;;;1.50;;
12756;SDS011;31601;48.042;12.240;2023-04-24T06:18:51;3.23;;;1.50;;
12756;SDS011;31601;48.042;12.240;2023-04-24T06:21:17;2.60;;;1.57;;
12756;SDS011;31601;48.042;12.240;2023-04-24T06:23:44;2.47;;;1.40;;
12756;SDS011;31601;48.042;12.240;2023-04-24T06:26:12;3.00;;;1.53;;
12756;SDS011;31601;48.042;12.240;2023-04-24T06:28:38;2.30;;;1.10;;
12756;SDS011;31601;48.042;12.240;2023-04-24T06:31:06;3.87;;;1.30;;
12756;SDS011;31601;48.042;12.240;2023-04-24T06:33:32;1.87;;;0.90;;
12756;SDS011;31601;48.042;12.240;2023-04-24T06:35:59;2.70;;;1.03;;
12756;SDS011;31601;48.042;12.240;2023-04-24T06:38:25;1.60;;;0.90;;
12756;SDS011;31601;48.042;12.240;2023-04-24T06:40:52;2.97;;;0.90;;
12756;SDS011;31601;48.042;12.240;2023-04-24T06:43:18;1.87;;;1.03;;
12756;SDS011;31601;48.042;12.240;2023-04-24T06:45:45;2.03;;;1.00;;
12756;SDS011;31601;48.042;12.240;2023-04-24T06:48:13;1.70;;;0.87;;
12756;SDS011;31601;48.042;12.240;2023-04-24T06:50:40;1.67;;;0.90;;
12756;SDS011;31601;48.042;12.240;2023-04-24T06:53:06;5.23;;;1.00;;
12756;SDS011;31601;48.042;12.240;2023-04-24T06:55:33;3.33;;;0.80;;
12756;SDS011;31601;48.042;12.240;2023-04-24T06:57:59;1.17;;;0.80;;
12756;SDS011;31601;48.042;12.240;2023-04-24T07:00:26;4.70;;;2.50;;
12756;SDS011;31601;48.042;12.240;2023-04-24T07:02:52;2.53;;;1.60;;
12756;SDS011;31601;48.042;12.240;2023-04-24T07:05:20;4.73;;;3.00;;
12756;SDS011;31601;48.042;12.240;2023-04-24T07:07:46;2.23;;;1.37;;
12756;SDS011;31601;48.042;12.240;2023-04-24T07:10:14;9.57;;;6.83;;
12756;SDS011;31601;48.042;12.240;2023-04-24T07:12:40;12.33;;;7.60;;
12756;SDS011;31601;48.042;12.240;2023-04-24T07:15:07;7.70;;;5.10;;
12756;SDS011;31601;48.042;12.240;2023-04-24T07:17:35;2.37;;;1.90;;
12756;SDS011;31601;48.042;12.240;2023-04-24T07:20:03;3.73;;;1.10;;
12756;SDS011;31601;48.042;12.240;2023-04-24T07:22:33;1.23;;;1.00;;
12756;SDS011;31601;48.042;12.240;2023-04-24T07:24:59;2.90;;;2.50;;
12756;SDS011;31601;48.042;12.240;2023-04-24T07:27:26;3.70;;;1.73;;
12756;SDS011;31601;48.042;12.240;2023-04-24T07:29:52;4.40;;;4.00;;
12756;SDS011;31601;48.042;12.240;2023-04-24T07:32:19;2.47;;;1.30;;
12756;SDS011;31601;48.042;12.240;2023-04-24T07:34:45;1.43;;;1.30;;
12756;SDS011;31601;48.042;12.240;2023-04-24T07:37:11;3.53;;;0.90;;
12756;SDS011;31601;48.042;12.240;2023-04-24T07:39:39;1.30;;;0.80;;
12756;SDS011;31601;48.042;12.240;2023-04-24T07:42:06;1.00;;;0.90;;
12756;SDS011;31601;48.042;12.240;2023-04-24T07:44:32;2.07;;;1.00;;
12756;SDS011;31601;48.042;12.240;2023-04-24T07:46:59;2.67;;;0.80;;
12756;SDS011;31601;48.042;12.240;2023-04-24T07:49:25;3.60;;;2.67;;
12756;SDS011;31601;48.042;12.240;2023-04-24T07:51:52;1.63;;;0.70;;
12756;SDS011;31601;48.042;12.240;2023-04-24T07:54:19;1.50;;;0.70;;
12756;SDS011;31601;48.042;12.240;2023-04-24T07:56:47;1.60;;;0.80;;
12756;SDS011;31601;48.042;12.240;2023-04-24T07:59:14;2.30;;;0.90;;
12756;SDS011;31601;48.042;12.240;2023-04-24T08:01:41;3.07;;;1.03;;
12756;SDS011;31601;48.042;12.240;2023-04-24T08:04:07;2.90;;;1.23;;
12756;SDS011;31601;48.042;12.240;2023-04-24T08:06:34;3.53;;;1.73;;
12756;SDS011;31601;48.042;12.240;2023-04-24T08:09:00;3.30;;;0.90;;
12756;SDS011;31601;48.042;12.240;2023-04-24T08:11:27;1.53;;;0.90;;
12756;SDS011;31601;48.042;12.240;2023-04-24T08:13:54;4.97;;;1.20;;
12756;SDS011;31601;48.042;12.240;2023-04-24T08:16:21;0.70;;;0.60;;
12756;SDS011;31601;48.042;12.240;2023-04-24T08:18:48;1.63;;;0.60;;
12756;SDS011;31601;48.042;12.240;2023-04-24T08:21:15;1.03;;;0.50;;
12756;SDS011;31601;48.042;12.240;2023-04-24T08:23:43;4.53;;;0.80;;
12756;SDS011;31601;48.042;12.240;2023-04-24T08:26:10;0.80;;;0.50;;
12756;SDS011;31601;48.042;12.240;2023-04-24T08:28:37;1.17;;;0.40;;
12756;SDS011;31601;48.042;12.240;2023-04-24T08:31:05;2.30;;;0.43;;
12756;SDS011;31601;48.042;12.240;2023-04-24T08:33:31;0.87;;;0.60;;
12756;SDS011;31601;48.042;12.240;2023-04-24T08:35:59;0.40;;;0.30;;
12756;SDS011;31601;48.042;12.240;2023-04-24T08:38:26;0.67;;;0.30;;
12756;SDS011;31601;48.042;12.240;2023-04-24T08:40:52;1.63;;;0.30;;
12756;SDS011;31601;48.042;12.240;2023-04-24T08:43:19;0.20;;;0.20;;
12756;SDS011;31601;48.042;12.240;2023-04-24T08:45:48;0.30;;;0.30;;
12756;SDS011;31601;48.042;12.240;2023-04-24T08:48:16;0.43;;;0.27;;
12756;SDS011;31601;48.042;12.240;2023-04-24T08:50:43;0.27;;;0.20;;
12756;SDS011;31601;48.042;12.240;2023-04-24T08:53:10;0.83;;;0.60;;
12756;SDS011;31601;48.042;12.240;2023-04-24T08:55:37;0.30;;;0.30;;
12756;SDS011;31601;48.042;12.240;2023-04-24T08:58:04;1.03;;;0.30;;
12756;SDS011;31601;48.042;12.240;2023-04-24T09:00:31;0.53;;;0.20;;
12756;SDS011;31601;48.042;12.240;2023-04-24T09:03:00;3.57;;;0.30;;
12756;SDS011;31601;48.042;12.240;2023-04-24T09:05:28;1.17;;;0.20;;
12756;SDS011;31601;48.042;12.240;2023-04-24T09:07:55;1.70;;;0.40;;
12756;SDS011;31601;48.042;12.240;2023-04-24T09:10:23;1.17;;;0.30;;
12756;SDS011;31601;48.042;12.240;2023-04-24T09:12:51;0.30;;;0.30;;
12756;SDS011;31601;48.042;12.240;2023-04-24T09:15:18;0.77;;;0.47;;
12756;SDS011;31601;48.042;12.240;2023-04-24T09:17:45;0.97;;;0.30;;
12756;SDS011;31601;48.042;12.240;2023-04-24T09:20:12;0.30;;;0.30;;
12756;SDS011;31601;48.042;12.240;2023-04-24T09:22:40;0.20;;;0.20;;
12756;SDS011;31601;48.042;12.240;2023-04-24T09:25:08;0.67;;;0.30;;
12756;SDS011;31601;48.042;12.240;2023-04-24T09:27:38;2.23;;;0.50;;
12756;SDS011;31601;48.042;12.240;2023-04-24T09:30:09;0.30;;;0.30;;
12756;SDS011;31601;48.042;12.240;2023-04-24T09:32:36;1.17;;;0.67;;
12756;SDS011;31601;48.042;12.240;2023-04-24T09:35:06;1.23;;;0.30;;
12756;SDS011;31601;48.042;12.240;2023-04-24T09:37:37;2.03;;;0.60;;
12756;SDS011;31601;48.042;12.240;2023-04-24T09:40:13;0.73;;;0.30;;
12756;SDS011;31601;48.042;12.240;2023-04-24T09:42:42;2.50;;;0.53;;
12756;SDS011;31601;48.042;12.240;2023-04-24T09:45:10;0.80;;;0.50;;
12756;SDS011;31601;48.042;12.240;2023-04-24T09:47:37;2.07;;;0.90;;
12756;SDS011;31601;48.042;12.240;2023-04-24T09:50:10;1.10;;;0.70;;
12756;SDS011;31601;48.042;12.240;2023-04-24T09:52:41;1.40;;;0.70;;
12756;SDS011;31601;48.042;12.240;2023-04-24T09:55:15;1.10;;;0.60;;
12756;SDS011;31601;48.042;12.240;2023-04-24T09:57:47;1.50;;;0.60;;
12756;SDS011;31601;48.042;12.240;2023-04-24T10:00:17;2.43;;;0.70;;
12756;SDS011;31601;48.042;12.240;2023-04-24T10:02:44;0.80;;;0.70;;
12756;SDS011;31601;48.042;12.240;2023-04-24T10:05:11;2.03;;;1.17;;
12756;SDS011;31601;48.042;12.240;2023-04-24T10:07:37;0.90;;;0.60;;
12756;SDS011;31601;48.042;12.240;2023-04-24T10:10:04;1.00;;;0.90;;
12756;SDS011;31601;48.042;12.240;2023-04-24T10:12:33;2.30;;;0.60;;
12756;SDS011;31601;48.042;12.240;2023-04-24T10:15:00;3.87;;;1.03;;
12756;SDS011;31601;48.042;12.240;2023-04-24T10:17:27;4.07;;;1.00;;
12756;SDS011;31601;48.042;12.240;2023-04-24T10:19:55;1.13;;;0.57;;
12756;SDS011;31601;48.042;12.240;2023-04-24T10:22:22;3.17;;;0.80;;
12756;SDS011;31601;48.042;12.240;2023-04-24T10:24:49;2.10;;;0.70;;
12756;SDS011;31601;48.042;12.240;2023-04-24T10:27:17;1.63;;;0.50;;
12756;SDS011;31601;48.042;12.240;2023-04-24T10:29:47;0.67;;;0.50;;
12756;SDS011;31601;48.042;12.240;2023-04-24T10:32:16;0.70;;;0.70;;
12756;SDS011;31601;48.042;12.240;2023-04-24T10:34:43;0.93;;;0.83;;
12756;SDS011;31601;48.042;12.240;2023-04-24T10:37:09;0.93;;;0.60;;
12756;SDS011;31601;48.042;12.240;2023-04-24T10:39:36;0.80;;;0.60;;
12756;SDS011;31601;48.042;12.240;2023-04-24T10:42:13;0.50;;;0.50;;
12756;SDS011;31601;48.042;12.240;2023-04-24T10:44:41;0.50;;;0.50;;
12756;SDS011;31601;48.042;12.240;2023-04-24T10:47:13;2.07;;;0.63;;
12756;SDS011;31601;48.042;12.240;2023-04-24T10:49:40;1.43;;;0.80;;
12756;SDS011;31601;48.042;12.240;2023-04-24T10:52:06;1.50;;;1.00;;
12756;SDS011;31601;48.042;12.240;2023-04-24T10:54:35;0.70;;;0.70;;
12756;SDS011;31601;48.042;12.240;2023-04-24T10:57:25;0.73;;;0.67;;
12756;SDS011;31601;48.042;12.240;2023-04-24T11:02:45;1.10;;;0.73;;
12756;SDS011;31601;48.042;12.240;2023-04-24T11:05:15;1.80;;;0.50;;
12756;SDS011;31601;48.042;12.240;2023-04-24T11:10:38;0.50;;;0.50;;
12756;SDS011;31601;48.042;12.240;2023-04-24T11:13:06;0.90;;;0.53;;
12756;SDS011;31601;48.042;12.240;2023-04-24T11:15:32;2.17;;;0.50;;
12756;SDS011;31601;48.042;12.240;2023-04-24T11:18:00;2.03;;;0.70;;
12756;SDS011;31601;48.042;12.240;2023-04-24T11:20:27;0.70;;;0.67;;
12756;SDS011;31601;48.042;12.240;2023-04-24T11:22:54;1.40;;;0.80;;
12756;SDS011;31601;48.042;12.240;2023-04-24T11:25:22;1.17;;;0.60;;
12756;SDS011;31601;48.042;12.240;2023-04-24T11:27:50;0.60;;;0.47;;
12756;SDS011;31601;48.042;12.240;2023-04-24T11:30:29;1.93;;;0.60;;
12756;SDS011;31601;48.042;12.240;2023-04-24T11:32:56;0.83;;;0.63;;
12756;SDS011;31601;48.042;12.240;2023-04-24T11:35:29;0.73;;;0.60;;
12756;SDS011;31601;48.042;12.240;2023-04-24T11:38:02;1.67;;;0.80;;
12756;SDS011;31601;48.042;12.240;2023-04-24T11:40:30;1.40;;;0.70;;
12756;SDS011;31601;48.042;12.240;2023-04-24T11:42:56;0.73;;;0.63;;
12756;SDS011;31601;48.042;12.240;2023-04-24T11:45:26;2.27;;;0.70;;
12756;SDS011;31601;48.042;12.240;2023-04-24T11:47:56;1.97;;;0.70;;
12756;SDS011;31601;48.042;12.240;2023-04-24T11:50:25;1.43;;;0.83;;
12756;SDS011;31601;48.042;12.240;2023-04-24T11:52:54;1.20;;;0.80;;
12756;SDS011;31601;48.042;12.240;2023-04-24T11:55:25;1.20;;;0.93;;
12756;SDS011;31601;48.042;12.240;2023-04-24T11:57:53;1.07;;;0.93;;
12756;SDS011;31601;48.042;12.240;2023-04-24T12:00:22;1.93;;;0.90;;
12756;SDS011;31601;48.042;12.240;2023-04-24T12:02:50;2.07;;;0.80;;
12756;SDS011;31601;48.042;12.240;2023-04-24T12:05:19;4.27;;;1.47;;
12756;SDS011;31601;48.042;12.240;2023-04-24T12:07:48;0.70;;;0.70;;
12756;SDS011;31601;48.042;12.240;2023-04-24T12:10:19;1.53;;;0.70;;
12756;SDS011;31601;48.042;12.240;2023-04-24T12:12:46;0.80;;;0.80;;
12756;SDS011;31601;48.042;12.240;2023-04-24T12:15:15;1.07;;;0.87;;
12756;SDS011;31601;48.042;12.240;2023-04-24T12:17:42;1.20;;;0.80;;
12756;SDS011;31601;48.042;12.240;2023-04-24T12:20:09;1.63;;;0.70;;
12756;SDS011;31601;48.042;12.240;2023-04-24T12:22:42;1.53;;;1.13;;
12756;SDS011;31601;48.042;12.240;2023-04-24T12:25:12;3.40;;;0.90;;
12756;SDS011;31601;48.042;12.240;2023-04-24T12:27:39;2.30;;;0.90;;
12756;SDS011;31601;48.042;12.240;2023-04-24T12:30:09;3.50;;;1.03;;
12756;SDS011;31601;48.042;12.240;2023-04-24T12:32:40;1.67;;;1.03;;
12756;SDS011;31601;48.042;12.240;2023-04-24T12:35:07;2.23;;;1.00;;
12756;SDS011;31601;48.042;12.240;2023-04-24T12:37:34;1.47;;;1.03;;
12756;SDS011;31601;48.042;12.240;2023-04-24T12:40:02;1.60;;;1.07;;
12756;SDS011;31601;48.042;12.240;2023-04-24T12:42:33;1.33;;;1.10;;
12756;SDS011;31601;48.042;12.240;2023-04-24T12:45:01;2.60;;;1.20;;
12756;SDS011;31601;48.042;12.240;2023-04-24T12:47:30;1.90;;;1.27;;
12756;SDS011;31601;48.042;12.240;2023-04-24T12:49:56;1.73;;;1.40;;
12756;SDS011;31601;48.042;12.240;2023-04-24T12:52:23;2.53;;;1.40;;
12756;SDS011;31601;48.042;12.240;2023-04-24T12:54:50;1.67;;;1.20;;
12756;SDS011;31601;48.042;12.240;2023-04-24T12:57:18;1.00;;;0.80;;
12756;SDS011;31601;48.042;12.240;2023-04-24T12:59:46;2.07;;;1.00;;
12756;SDS011;31601;48.042;12.240;2023-04-24T13:02:12;1.53;;;1.03;;
12756;SDS011;31601;48.042;12.240;2023-04-24T13:04:42;1.67;;;1.13;;
12756;SDS011;31601;48.042;12.240;2023-04-24T13:07:09;1.20;;;0.83;;
12756;SDS011;31601;48.042;12.240;2023-04-24T13:09:36;1.17;;;1.07;;
12756;SDS011;31601;48.042;12.240;2023-04-24T13:12:02;4.87;;;1.50;;
12756;SDS011;31601;48.042;12.240;2023-04-24T13:14:30;3.93;;;1.13;;
12756;SDS011;31601;48.042;12.240;2023-04-24T13:16:58;2.60;;;1.37;;
12756;SDS011;31601;48.042;12.240;2023-04-24T13:19:25;3.07;;;1.10;;
12756;SDS011;31601;48.042;12.240;2023-04-24T13:21:51;2.47;;;0.90;;
12756;SDS011;31601;48.042;12.240;2023-04-24T13:24:19;2.20;;;0.70;;
12756;SDS011;31601;48.042;12.240;2023-04-24T13:26:45;2.00;;;0.93;;
12756;SDS011;31601;48.042;12.240;2023-04-24T13:29:12;5.93;;;1.37;;
12756;SDS011;31601;48.042;12.240;2023-04-24T13:31:38;2.17;;;0.93;;
12756;SDS011;31601;48.042;12.240;2023-04-24T13:34:06;1.43;;;0.90;;
12756;SDS011;31601;48.042;12.240;2023-04-24T13:36:33;1.20;;;0.93;;
12756;SDS011;31601;48.042;12.240;2023-04-24T13:39:00;2.07;;;0.90;;
12756;SDS011;31601;48.042;12.240;2023-04-24T13:41:26;1.27;;;0.80;;
12756;SDS011;31601;48.042;12.240;2023-04-24T13:43:53;2.90;;;1.87;;
12756;SDS011;31601;48.042;12.240;2023-04-24T13:46:19;1.60;;;0.83;;
12756;SDS011;31601;48.042;12.240;2023-04-24T13:48:46;2.40;;;1.00;;
12756;SDS011;31601;48.042;12.240;2023-04-24T13:51:14;2.50;;;0.93;;
12756;SDS011;31601;48.042;12.240;2023-04-24T13:53:40;1.37;;;1.00;;
12756;SDS011;31601;48.042;12.240;2023-04-24T13:56:07;3.73;;;1.17;;
12756;SDS011;31601;48.042;12.240;2023-04-24T13:58:34;2.73;;;0.80;;
12756;SDS011;31601;48.042;12.240;2023-04-24T14:01:01;1.13;;;1.00;;
12756;SDS011;31601;48.042;12.240;2023-04-24T14:03:27;1.50;;;0.90;;
12756;SDS011;31601;48.042;12.240;2023-04-24T14:05:54;2.43;;;0.93;;
12756;SDS011;31601;48.042;12.240;2023-04-24T14:08:21;2.20;;;1.10;;
12756;SDS011;31601;48.042;12.240;2023-04-24T14:10:50;6.87;;;4.37;;
12756;SDS011;31601;48.042;12.240;2023-04-24T14:13:16;1.80;;;1.70;;
12756;SDS011;31601;48.042;12.240;2023-04-24T14:15:43;10.30;;;7.93;;
12756;SDS011;31601;48.042;12.240;2023-04-24T14:18:09;12.20;;;9.80;;
12756;SDS011;31601;48.042;12.240;2023-04-24T14:20:36;22.60;;;15.03;;
12756;SDS011;31601;48.042;12.240;2023-04-24T14:23:03;15.43;;;11.67;;
12756;SDS011;31601;48.042;12.240;2023-04-24T14:25:31;5.90;;;4.43;;
12756;SDS011;31601;48.042;12.240;2023-04-24T14:27:57;2.80;;;1.80;;
12756;SDS011;31601;48.042;12.240;2023-04-24T14:30:24;3.87;;;1.67;;
12756;SDS011;31601;48.042;12.240;2023-04-24T14:32:50;2.40;;;1.57;;
12756;SDS011;31601;48.042;12.240;2023-04-24T14:35:17;2.53;;;1.10;;
12756;SDS011;31601;48.042;12.240;2023-04-24T14:37:43;1.23;;;1.00;;
12756;SDS011;31601;48.042;12.240;2023-04-24T14:40:10;3.90;;;1.30;;